sensor_id;sensor_type;location;lat;lon;timestamp;P1;durP1;ratioP1;P2;durP2;ratioP2
2838;SDS011;1427;48.510;9.060;2023-08-17T00:01:50;47.10;;;2.30;;
2838;SDS011;1427;48.510;9.060;2023-08-17T00:04:18;47.93;;;2.37;;
2838;SDS011;1427;48.510;9.060;2023-08-17T00:06:47;46.17;;;2.10;;
2838;SDS011;1427;48.510;9.060;2023-08-17T00:09:15;46.37;;;1.97;;
2838;SDS011;1427;48.510;9.060;2023-08-17T00:11:43;47.70;;;2.70;;
2838;SDS011;1427;48.510;9.060;2023-08-17T00:14:12;47.07;;;2.93;;
2838;SDS011;1427;48.510;9.060;2023-08-17T00:16:40;47.63;;;2.60;;
2838;SDS011;1427;48.510;9.060;2023-08-17T00:19:08;46.70;;;2.10;;
2838;SDS011;1427;48.510;9.060;2023-08-17T00:21:36;46.60;;;2.70;;
2838;SDS011;1427;48.510;9.060;2023-08-17T00:24:05;46.37;;;2.30;;
2838;SDS011;1427;48.510;9.060;2023-08-17T00:26:33;46.90;;;2.90;;
2838;SDS011;1427;48.510;9.060;2023-08-17T00:29:01;48.70;;;2.60;;
2838;SDS011;1427;48.510;9.060;2023-08-17T00:31:31;47.60;;;2.80;;
2838;SDS011;1427;48.510;9.060;2023-08-17T00:33:59;46.97;;;2.70;;
2838;SDS011;1427;48.510;9.060;2023-08-17T00:36:27;46.53;;;2.23;;
2838;SDS011;1427;48.510;9.060;2023-08-17T00:38:55;47.00;;;2.50;;
2838;SDS011;1427;48.510;9.060;2023-08-17T00:41:23;46.00;;;2.17;;
2838;SDS011;1427;48.510;9.060;2023-08-17T00:43:52;46.80;;;2.47;;
2838;SDS011;1427;48.510;9.060;2023-08-17T00:46:20;46.43;;;2.27;;
2838;SDS011;1427;48.510;9.060;2023-08-17T00:48:50;48.20;;;2.50;;
2838;SDS011;1427;48.510;9.060;2023-08-17T00:51:19;46.17;;;2.37;;
2838;SDS011;1427;48.510;9.060;2023-08-17T00:53:47;48.40;;;3.00;;
2838;SDS011;1427;48.510;9.060;2023-08-17T00:56:15;46.07;;;2.20;;
2838;SDS011;1427;48.510;9.060;2023-08-17T00:58:43;47.20;;;2.03;;
2838;SDS011;1427;48.510;9.060;2023-08-17T01:01:12;46.27;;;2.23;;
2838;SDS011;1427;48.510;9.060;2023-08-17T01:03:40;47.47;;;2.43;;
2838;SDS011;1427;48.510;9.060;2023-08-17T01:06:09;47.37;;;3.00;;
2838;SDS011;1427;48.510;9.060;2023-08-17T01:08:37;49.00;;;2.27;;
2838;SDS011;1427;48.510;9.060;2023-08-17T01:11:08;46.23;;;2.40;;
2838;SDS011;1427;48.510;9.060;2023-08-17T01:13:48;46.57;;;2.20;;
2838;SDS011;1427;48.510;9.060;2023-08-17T01:16:21;46.90;;;2.40;;
2838;SDS011;1427;48.510;9.060;2023-08-17T01:18:54;46.60;;;2.77;;
2838;SDS011;1427;48.510;9.060;2023-08-17T01:21:28;47.20;;;3.30;;
2838;SDS011;1427;48.510;9.060;2023-08-17T01:24:04;47.17;;;1.97;;
2838;SDS011;1427;48.510;9.060;2023-08-17T01:26:33;47.30;;;2.27;;
2838;SDS011;1427;48.510;9.060;2023-08-17T01:29:01;48.90;;;2.53;;
2838;SDS011;1427;48.510;9.060;2023-08-17T01:31:30;47.03;;;3.00;;
2838;SDS011;1427;48.510;9.060;2023-08-17T01:34:03;47.87;;;3.50;;
2838;SDS011;1427;48.510;9.060;2023-08-17T01:36:36;47.97;;;2.60;;
2838;SDS011;1427;48.510;9.060;2023-08-17T01:39:08;47.57;;;2.30;;
2838;SDS011;1427;48.510;9.060;2023-08-17T01:41:38;48.10;;;3.33;;
2838;SDS011;1427;48.510;9.060;2023-08-17T01:44:07;47.30;;;2.67;;
2838;SDS011;1427;48.510;9.060;2023-08-17T01:46:35;46.53;;;2.30;;
2838;SDS011;1427;48.510;9.060;2023-08-17T01:49:03;46.80;;;2.40;;
2838;SDS011;1427;48.510;9.060;2023-08-17T01:51:31;46.90;;;2.27;;
2838;SDS011;1427;48.510;9.060;2023-08-17T01:53:59;47.60;;;2.40;;
2838;SDS011;1427;48.510;9.060;2023-08-17T01:56:29;46.57;;;2.20;;
2838;SDS011;1427;48.510;9.060;2023-08-17T01:58:57;45.97;;;1.77;;
2838;SDS011;1427;48.510;9.060;2023-08-17T02:01:25;46.00;;;1.83;;
2838;SDS011;1427;48.510;9.060;2023-08-17T02:03:53;46.53;;;2.13;;
2838;SDS011;1427;48.510;9.060;2023-08-17T02:06:21;47.77;;;3.60;;
2838;SDS011;1427;48.510;9.060;2023-08-17T02:08:49;47.17;;;2.20;;
2838;SDS011;1427;48.510;9.060;2023-08-17T02:11:18;46.90;;;2.37;;
2838;SDS011;1427;48.510;9.060;2023-08-17T02:13:47;47.10;;;2.30;;
2838;SDS011;1427;48.510;9.060;2023-08-17T02:16:15;48.63;;;3.23;;
2838;SDS011;1427;48.510;9.060;2023-08-17T02:18:43;47.47;;;2.50;;
2838;SDS011;1427;48.510;9.060;2023-08-17T02:21:11;50.33;;;3.40;;
2838;SDS011;1427;48.510;9.060;2023-08-17T02:23:39;46.60;;;2.30;;
2838;SDS011;1427;48.510;9.060;2023-08-17T02:26:07;46.47;;;2.23;;
2838;SDS011;1427;48.510;9.060;2023-08-17T02:28:35;46.57;;;2.10;;
2838;SDS011;1427;48.510;9.060;2023-08-17T02:31:05;46.73;;;3.03;;
2838;SDS011;1427;48.510;9.060;2023-08-17T02:33:33;48.53;;;3.27;;
2838;SDS011;1427;48.510;9.060;2023-08-17T02:36:03;47.97;;;3.00;;
2838;SDS011;1427;48.510;9.060;2023-08-17T02:38:31;46.47;;;2.00;;
2838;SDS011;1427;48.510;9.060;2023-08-17T02:40:59;47.90;;;3.27;;
2838;SDS011;1427;48.510;9.060;2023-08-17T02:43:27;47.00;;;2.27;;
2838;SDS011;1427;48.510;9.060;2023-08-17T02:45:55;47.63;;;2.90;;
2838;SDS011;1427;48.510;9.060;2023-08-17T02:48:27;46.00;;;2.10;;
2838;SDS011;1427;48.510;9.060;2023-08-17T02:50:58;49.90;;;3.60;;
2838;SDS011;1427;48.510;9.060;2023-08-17T02:53:26;47.00;;;2.57;;
2838;SDS011;1427;48.510;9.060;2023-08-17T02:55:54;46.57;;;2.27;;
2838;SDS011;1427;48.510;9.060;2023-08-17T02:58:22;46.67;;;2.60;;
2838;SDS011;1427;48.510;9.060;2023-08-17T03:00:50;48.83;;;2.90;;
2838;SDS011;1427;48.510;9.060;2023-08-17T03:03:19;46.90;;;2.00;;
2838;SDS011;1427;48.510;9.060;2023-08-17T03:05:48;46.77;;;2.53;;
2838;SDS011;1427;48.510;9.060;2023-08-17T03:08:16;47.07;;;2.40;;
2838;SDS011;1427;48.510;9.060;2023-08-17T03:10:44;46.80;;;2.60;;
2838;SDS011;1427;48.510;9.060;2023-08-17T03:13:12;47.77;;;3.43;;
2838;SDS011;1427;48.510;9.060;2023-08-17T03:15:40;46.50;;;2.20;;
2838;SDS011;1427;48.510;9.060;2023-08-17T03:18:08;47.67;;;2.93;;
2838;SDS011;1427;48.510;9.060;2023-08-17T03:20:36;48.70;;;3.20;;
2838;SDS011;1427;48.510;9.060;2023-08-17T03:23:06;47.47;;;2.60;;
2838;SDS011;1427;48.510;9.060;2023-08-17T03:25:34;47.10;;;2.40;;
2838;SDS011;1427;48.510;9.060;2023-08-17T03:28:02;47.47;;;2.70;;
2838;SDS011;1427;48.510;9.060;2023-08-17T03:30:31;47.00;;;2.53;;
2838;SDS011;1427;48.510;9.060;2023-08-17T03:32:59;47.10;;;2.40;;
2838;SDS011;1427;48.510;9.060;2023-08-17T03:35:27;47.23;;;2.73;;
2838;SDS011;1427;48.510;9.060;2023-08-17T03:37:57;48.20;;;2.47;;
2838;SDS011;1427;48.510;9.060;2023-08-17T03:40:27;49.80;;;3.00;;
2838;SDS011;1427;48.510;9.060;2023-08-17T03:42:55;47.80;;;2.67;;
2838;SDS011;1427;48.510;9.060;2023-08-17T03:45:23;46.53;;;2.17;;
2838;SDS011;1427;48.510;9.060;2023-08-17T03:47:51;47.20;;;2.23;;
2838;SDS011;1427;48.510;9.060;2023-08-17T03:50:19;48.30;;;2.60;;
2838;SDS011;1427;48.510;9.060;2023-08-17T03:52:47;48.07;;;2.70;;
2838;SDS011;1427;48.510;9.060;2023-08-17T03:55:15;47.60;;;3.13;;
2838;SDS011;1427;48.510;9.060;2023-08-17T03:57:44;48.37;;;2.67;;
2838;SDS011;1427;48.510;9.060;2023-08-17T04:00:13;46.90;;;2.23;;
2838;SDS011;1427;48.510;9.060;2023-08-17T04:02:41;49.20;;;3.13;;
2838;SDS011;1427;48.510;9.060;2023-08-17T04:05:10;46.20;;;2.20;;
2838;SDS011;1427;48.510;9.060;2023-08-17T04:07:38;46.70;;;2.03;;
2838;SDS011;1427;48.510;9.060;2023-08-17T04:10:07;47.33;;;3.30;;
2838;SDS011;1427;48.510;9.060;2023-08-17T04:12:35;46.20;;;1.70;;
2838;SDS011;1427;48.510;9.060;2023-08-17T04:15:05;46.50;;;2.10;;
2838;SDS011;1427;48.510;9.060;2023-08-17T04:17:34;47.43;;;2.50;;
2838;SDS011;1427;48.510;9.060;2023-08-17T04:20:02;46.40;;;2.20;;
2838;SDS011;1427;48.510;9.060;2023-08-17T04:22:31;47.10;;;2.87;;
2838;SDS011;1427;48.510;9.060;2023-08-17T04:24:59;47.40;;;2.60;;
2838;SDS011;1427;48.510;9.060;2023-08-17T04:27:27;46.87;;;2.37;;
2838;SDS011;1427;48.510;9.060;2023-08-17T04:29:55;47.87;;;2.03;;
2838;SDS011;1427;48.510;9.060;2023-08-17T04:32:25;47.90;;;2.83;;
2838;SDS011;1427;48.510;9.060;2023-08-17T04:34:53;47.20;;;3.20;;
2838;SDS011;1427;48.510;9.060;2023-08-17T04:37:22;49.47;;;5.57;;
2838;SDS011;1427;48.510;9.060;2023-08-17T04:39:50;47.33;;;3.60;;
2838;SDS011;1427;48.510;9.060;2023-08-17T04:42:18;47.80;;;4.10;;
2838;SDS011;1427;48.510;9.060;2023-08-17T04:44:46;48.10;;;4.03;;
2838;SDS011;1427;48.510;9.060;2023-08-17T04:47:14;47.53;;;3.60;;
2838;SDS011;1427;48.510;9.060;2023-08-17T04:49:44;47.37;;;3.50;;
2838;SDS011;1427;48.510;9.060;2023-08-17T04:52:12;49.50;;;4.60;;
2838;SDS011;1427;48.510;9.060;2023-08-17T04:54:40;47.60;;;3.60;;
2838;SDS011;1427;48.510;9.060;2023-08-17T04:57:08;48.60;;;4.50;;
2838;SDS011;1427;48.510;9.060;2023-08-17T04:59:36;48.60;;;4.63;;
2838;SDS011;1427;48.510;9.060;2023-08-17T05:02:04;47.67;;;3.97;;
2838;SDS011;1427;48.510;9.060;2023-08-17T05:04:33;48.60;;;3.73;;
2838;SDS011;1427;48.510;9.060;2023-08-17T05:07:02;48.67;;;4.53;;
2838;SDS011;1427;48.510;9.060;2023-08-17T05:09:30;48.10;;;4.10;;
2838;SDS011;1427;48.510;9.060;2023-08-17T05:11:58;48.33;;;4.63;;
2838;SDS011;1427;48.510;9.060;2023-08-17T05:14:26;47.20;;;4.00;;
2838;SDS011;1427;48.510;9.060;2023-08-17T05:16:54;49.00;;;5.00;;
2838;SDS011;1427;48.510;9.060;2023-08-17T05:19:24;47.77;;;4.07;;
2838;SDS011;1427;48.510;9.060;2023-08-17T05:21:55;48.53;;;4.30;;
2838;SDS011;1427;48.510;9.060;2023-08-17T05:24:25;48.87;;;4.50;;
2838;SDS011;1427;48.510;9.060;2023-08-17T05:26:53;48.17;;;4.30;;
2838;SDS011;1427;48.510;9.060;2023-08-17T05:29:21;49.30;;;4.70;;
2838;SDS011;1427;48.510;9.060;2023-08-17T05:31:49;47.37;;;3.87;;
2838;SDS011;1427;48.510;9.060;2023-08-17T05:34:17;47.87;;;3.90;;
2838;SDS011;1427;48.510;9.060;2023-08-17T05:36:45;47.30;;;3.23;;
2838;SDS011;1427;48.510;9.060;2023-08-17T05:39:13;49.10;;;4.60;;
2838;SDS011;1427;48.510;9.060;2023-08-17T05:41:43;47.30;;;3.17;;
2838;SDS011;1427;48.510;9.060;2023-08-17T05:44:11;48.23;;;4.10;;
2838;SDS011;1427;48.510;9.060;2023-08-17T05:46:40;52.57;;;4.67;;
2838;SDS011;1427;48.510;9.060;2023-08-17T05:49:08;46.90;;;3.10;;
2838;SDS011;1427;48.510;9.060;2023-08-17T05:51:36;48.47;;;4.10;;
2838;SDS011;1427;48.510;9.060;2023-08-17T05:54:04;47.87;;;3.83;;
2838;SDS011;1427;48.510;9.060;2023-08-17T05:56:33;48.13;;;4.20;;
2838;SDS011;1427;48.510;9.060;2023-08-17T05:59:02;48.17;;;4.43;;
2838;SDS011;1427;48.510;9.060;2023-08-17T06:01:37;48.50;;;4.00;;
2838;SDS011;1427;48.510;9.060;2023-08-17T06:04:05;48.10;;;4.00;;
2838;SDS011;1427;48.510;9.060;2023-08-17T06:06:33;48.47;;;4.13;;
2838;SDS011;1427;48.510;9.060;2023-08-17T06:09:01;47.07;;;3.47;;
2838;SDS011;1427;48.510;9.060;2023-08-17T06:11:29;48.60;;;4.00;;
2838;SDS011;1427;48.510;9.060;2023-08-17T06:13:57;47.27;;;3.47;;
2838;SDS011;1427;48.510;9.060;2023-08-17T06:16:27;51.77;;;3.93;;
2838;SDS011;1427;48.510;9.060;2023-08-17T06:18:55;48.93;;;4.77;;
2838;SDS011;1427;48.510;9.060;2023-08-17T06:21:23;49.00;;;4.17;;
2838;SDS011;1427;48.510;9.060;2023-08-17T06:23:51;49.33;;;4.87;;
2838;SDS011;1427;48.510;9.060;2023-08-17T06:26:19;47.63;;;4.17;;
2838;SDS011;1427;48.510;9.060;2023-08-17T06:28:47;47.97;;;4.07;;
2838;SDS011;1427;48.510;9.060;2023-08-17T06:31:15;48.50;;;4.53;;
2838;SDS011;1427;48.510;9.060;2023-08-17T06:33:44;47.83;;;3.73;;
2838;SDS011;1427;48.510;9.060;2023-08-17T06:36:12;49.43;;;4.93;;
2838;SDS011;1427;48.510;9.060;2023-08-17T06:38:42;47.67;;;3.73;;
2838;SDS011;1427;48.510;9.060;2023-08-17T06:41:11;48.47;;;4.30;;
2838;SDS011;1427;48.510;9.060;2023-08-17T06:43:38;47.97;;;3.50;;
2838;SDS011;1427;48.510;9.060;2023-08-17T06:46:07;51.03;;;5.67;;
2838;SDS011;1427;48.510;9.060;2023-08-17T06:48:35;51.60;;;5.03;;
2838;SDS011;1427;48.510;9.060;2023-08-17T06:51:04;48.50;;;4.33;;
2838;SDS011;1427;48.510;9.060;2023-08-17T06:53:32;49.30;;;4.80;;
2838;SDS011;1427;48.510;9.060;2023-08-17T06:56:01;49.40;;;5.77;;
2838;SDS011;1427;48.510;9.060;2023-08-17T06:58:29;50.07;;;5.30;;
2838;SDS011;1427;48.510;9.060;2023-08-17T07:00:57;47.93;;;3.87;;
2838;SDS011;1427;48.510;9.060;2023-08-17T07:03:25;49.80;;;5.63;;
2838;SDS011;1427;48.510;9.060;2023-08-17T07:05:53;51.40;;;6.10;;
2838;SDS011;1427;48.510;9.060;2023-08-17T07:08:23;48.47;;;4.40;;
2838;SDS011;1427;48.510;9.060;2023-08-17T07:10:51;48.20;;;3.93;;
2838;SDS011;1427;48.510;9.060;2023-08-17T07:13:19;48.73;;;4.10;;
2838;SDS011;1427;48.510;9.060;2023-08-17T07:15:47;52.03;;;4.90;;
2838;SDS011;1427;48.510;9.060;2023-08-17T07:18:15;49.77;;;4.10;;
2838;SDS011;1427;48.510;9.060;2023-08-17T07:20:43;48.10;;;4.40;;
2838;SDS011;1427;48.510;9.060;2023-08-17T07:23:11;47.87;;;3.93;;
2838;SDS011;1427;48.510;9.060;2023-08-17T07:25:40;49.37;;;4.77;;
2838;SDS011;1427;48.510;9.060;2023-08-17T07:28:09;48.80;;;4.53;;
2838;SDS011;1427;48.510;9.060;2023-08-17T07:30:37;49.70;;;5.00;;
2838;SDS011;1427;48.510;9.060;2023-08-17T07:33:04;48.37;;;4.50;;
2838;SDS011;1427;48.510;9.060;2023-08-17T07:35:33;48.30;;;4.50;;
2838;SDS011;1427;48.510;9.060;2023-08-17T07:38:01;48.53;;;4.77;;
2838;SDS011;1427;48.510;9.060;2023-08-17T07:40:35;49.40;;;4.20;;
2838;SDS011;1427;48.510;9.060;2023-08-17T07:43:04;50.83;;;4.60;;
2838;SDS011;1427;48.510;9.060;2023-08-17T07:45:32;48.37;;;4.87;;
2838;SDS011;1427;48.510;9.060;2023-08-17T07:48:00;50.47;;;6.10;;
2838;SDS011;1427;48.510;9.060;2023-08-17T07:50:28;48.20;;;4.20;;
2838;SDS011;1427;48.510;9.060;2023-08-17T07:52:56;49.37;;;4.63;;
2838;SDS011;1427;48.510;9.060;2023-08-17T07:55:25;48.77;;;4.10;;
2838;SDS011;1427;48.510;9.060;2023-08-17T07:57:54;50.80;;;5.00;;
2838;SDS011;1427;48.510;9.060;2023-08-17T08:00:23;48.50;;;4.40;;
2838;SDS011;1427;48.510;9.060;2023-08-17T08:02:51;49.10;;;4.50;;
2838;SDS011;1427;48.510;9.060;2023-08-17T08:05:19;49.70;;;5.10;;
2838;SDS011;1427;48.510;9.060;2023-08-17T08:07:47;49.60;;;5.30;;
2838;SDS011;1427;48.510;9.060;2023-08-17T08:10:15;47.27;;;3.53;;
2838;SDS011;1427;48.510;9.060;2023-08-17T08:12:43;47.57;;;4.37;;
2838;SDS011;1427;48.510;9.060;2023-08-17T08:15:12;49.53;;;5.93;;
2838;SDS011;1427;48.510;9.060;2023-08-17T08:17:41;49.20;;;5.20;;
2838;SDS011;1427;48.510;9.060;2023-08-17T08:20:09;50.27;;;5.30;;
2838;SDS011;1427;48.510;9.060;2023-08-17T08:22:37;49.60;;;4.37;;
2838;SDS011;1427;48.510;9.060;2023-08-17T08:25:06;48.10;;;4.20;;
2838;SDS011;1427;48.510;9.060;2023-08-17T08:27:34;51.20;;;5.10;;
2838;SDS011;1427;48.510;9.060;2023-08-17T08:30:03;50.80;;;5.40;;
2838;SDS011;1427;48.510;9.060;2023-08-17T08:32:33;49.10;;;4.03;;
2838;SDS011;1427;48.510;9.060;2023-08-17T08:35:03;50.90;;;4.60;;
2838;SDS011;1427;48.510;9.060;2023-08-17T08:37:31;48.20;;;4.50;;
2838;SDS011;1427;48.510;9.060;2023-08-17T08:39:59;49.23;;;3.80;;
2838;SDS011;1427;48.510;9.060;2023-08-17T08:42:27;49.30;;;5.07;;
2838;SDS011;1427;48.510;9.060;2023-08-17T08:44:56;49.10;;;4.90;;
2838;SDS011;1427;48.510;9.060;2023-08-17T08:47:24;48.00;;;3.93;;
2838;SDS011;1427;48.510;9.060;2023-08-17T08:49:58;49.37;;;4.73;;
2838;SDS011;1427;48.510;9.060;2023-08-17T08:52:32;48.77;;;5.03;;
2838;SDS011;1427;48.510;9.060;2023-08-17T08:55:03;49.13;;;4.77;;
2838;SDS011;1427;48.510;9.060;2023-08-17T08:57:38;49.93;;;4.87;;
2838;SDS011;1427;48.510;9.060;2023-08-17T09:00:07;50.20;;;5.67;;
2838;SDS011;1427;48.510;9.060;2023-08-17T09:02:36;49.47;;;5.13;;
2838;SDS011;1427;48.510;9.060;2023-08-17T09:05:06;49.73;;;5.73;;
2838;SDS011;1427;48.510;9.060;2023-08-17T09:07:37;48.57;;;4.73;;
2838;SDS011;1427;48.510;9.060;2023-08-17T09:10:06;50.10;;;5.40;;
2838;SDS011;1427;48.510;9.060;2023-08-17T09:12:36;49.10;;;4.70;;
2838;SDS011;1427;48.510;9.060;2023-08-17T09:15:07;50.60;;;5.63;;
2838;SDS011;1427;48.510;9.060;2023-08-17T09:17:36;50.60;;;4.60;;
2838;SDS011;1427;48.510;9.060;2023-08-17T09:20:06;49.50;;;5.17;;
2838;SDS011;1427;48.510;9.060;2023-08-17T09:22:38;49.27;;;4.13;;
2838;SDS011;1427;48.510;9.060;2023-08-17T09:25:07;49.87;;;4.60;;
2838;SDS011;1427;48.510;9.060;2023-08-17T09:27:37;47.50;;;3.83;;
2838;SDS011;1427;48.510;9.060;2023-08-17T09:30:08;48.20;;;4.30;;
2838;SDS011;1427;48.510;9.060;2023-08-17T09:32:37;47.67;;;3.93;;
2838;SDS011;1427;48.510;9.060;2023-08-17T09:35:06;48.60;;;4.47;;
2838;SDS011;1427;48.510;9.060;2023-08-17T09:37:34;48.83;;;5.10;;
2838;SDS011;1427;48.510;9.060;2023-08-17T09:40:04;49.90;;;5.57;;
2838;SDS011;1427;48.510;9.060;2023-08-17T09:42:34;48.60;;;4.43;;
2838;SDS011;1427;48.510;9.060;2023-08-17T09:45:03;48.70;;;5.23;;
2838;SDS011;1427;48.510;9.060;2023-08-17T09:47:32;48.80;;;5.13;;
2838;SDS011;1427;48.510;9.060;2023-08-17T09:50:00;49.83;;;6.23;;
2838;SDS011;1427;48.510;9.060;2023-08-17T09:52:28;49.83;;;5.10;;
2838;SDS011;1427;48.510;9.060;2023-08-17T09:54:56;50.03;;;5.40;;
2838;SDS011;1427;48.510;9.060;2023-08-17T09:57:35;48.63;;;4.67;;
2838;SDS011;1427;48.510;9.060;2023-08-17T10:00:05;50.27;;;5.53;;
2838;SDS011;1427;48.510;9.060;2023-08-17T10:02:35;50.00;;;6.10;;
2838;SDS011;1427;48.510;9.060;2023-08-17T10:05:03;51.37;;;7.37;;
2838;SDS011;1427;48.510;9.060;2023-08-17T10:07:35;49.50;;;5.60;;
2838;SDS011;1427;48.510;9.060;2023-08-17T10:10:08;48.90;;;6.10;;
2838;SDS011;1427;48.510;9.060;2023-08-17T10:12:41;48.90;;;5.77;;
2838;SDS011;1427;48.510;9.060;2023-08-17T10:15:13;49.03;;;5.60;;
2838;SDS011;1427;48.510;9.060;2023-08-17T10:17:48;49.20;;;5.60;;
2838;SDS011;1427;48.510;9.060;2023-08-17T10:20:22;51.90;;;6.67;;
2838;SDS011;1427;48.510;9.060;2023-08-17T10:22:54;48.97;;;4.87;;
2838;SDS011;1427;48.510;9.060;2023-08-17T10:25:29;48.10;;;4.93;;
2838;SDS011;1427;48.510;9.060;2023-08-17T10:27:59;50.70;;;6.10;;
2838;SDS011;1427;48.510;9.060;2023-08-17T10:30:30;48.47;;;5.07;;
2838;SDS011;1427;48.510;9.060;2023-08-17T10:32:58;50.83;;;7.68;;
2838;SDS011;1427;48.510;9.060;2023-08-17T10:35:27;49.17;;;5.43;;
2838;SDS011;1427;48.510;9.060;2023-08-17T10:37:56;49.13;;;5.93;;
2838;SDS011;1427;48.510;9.060;2023-08-17T10:40:27;49.67;;;6.13;;
2838;SDS011;1427;48.510;9.060;2023-08-17T10:42:56;49.40;;;5.63;;
2838;SDS011;1427;48.510;9.060;2023-08-17T10:45:27;49.47;;;6.10;;
2838;SDS011;1427;48.510;9.060;2023-08-17T10:51:03;49.97;;;6.10;;
2838;SDS011;1427;48.510;9.060;2023-08-17T10:53:40;47.58;;;4.65;;
2838;SDS011;1427;48.510;9.060;2023-08-17T10:56:16;48.10;;;4.60;;
2838;SDS011;1427;48.510;9.060;2023-08-17T10:58:44;49.75;;;5.97;;
2838;SDS011;1427;48.510;9.060;2023-08-17T11:01:13;51.37;;;6.27;;
2838;SDS011;1427;48.510;9.060;2023-08-17T11:03:47;48.95;;;4.85;;
2838;SDS011;1427;48.510;9.060;2023-08-17T11:06:37;49.30;;;5.83;;
2838;SDS011;1427;48.510;9.060;2023-08-17T11:09:08;49.58;;;7.32;;
2838;SDS011;1427;48.510;9.060;2023-08-17T11:11:36;48.47;;;5.28;;
2838;SDS011;1427;48.510;9.060;2023-08-17T11:14:04;48.88;;;4.88;;
2838;SDS011;1427;48.510;9.060;2023-08-17T11:16:34;48.75;;;5.93;;
2838;SDS011;1427;48.510;9.060;2023-08-17T11:19:03;49.35;;;5.47;;
2838;SDS011;1427;48.510;9.060;2023-08-17T11:21:31;48.47;;;5.35;;
2838;SDS011;1427;48.510;9.060;2023-08-17T11:23:59;49.13;;;5.63;;
2838;SDS011;1427;48.510;9.060;2023-08-17T11:26:27;49.03;;;5.57;;
2838;SDS011;1427;48.510;9.060;2023-08-17T11:29:01;48.40;;;4.72;;
2838;SDS011;1427;48.510;9.060;2023-08-17T11:31:31;48.78;;;5.40;;
2838;SDS011;1427;48.510;9.060;2023-08-17T11:34:01;48.13;;;5.43;;
2838;SDS011;1427;48.510;9.060;2023-08-17T11:36:29;48.17;;;4.90;;
2838;SDS011;1427;48.510;9.060;2023-08-17T11:38:57;49.20;;;6.00;;
2838;SDS011;1427;48.510;9.060;2023-08-17T11:41:25;49.20;;;5.85;;
2838;SDS011;1427;48.510;9.060;2023-08-17T11:43:53;49.90;;;7.38;;
2838;SDS011;1427;48.510;9.060;2023-08-17T11:46:22;48.83;;;5.68;;
2838;SDS011;1427;48.510;9.060;2023-08-17T11:48:54;48.30;;;5.00;;
2838;SDS011;1427;48.510;9.060;2023-08-17T11:51:29;48.95;;;5.88;;
2838;SDS011;1427;48.510;9.060;2023-08-17T11:53:58;48.65;;;5.35;;
2838;SDS011;1427;48.510;9.060;2023-08-17T11:56:27;48.85;;;5.15;;
2838;SDS011;1427;48.510;9.060;2023-08-17T11:58:55;49.38;;;4.80;;
2838;SDS011;1427;48.510;9.060;2023-08-17T12:01:23;49.45;;;6.32;;
2838;SDS011;1427;48.510;9.060;2023-08-17T12:03:51;47.85;;;4.90;;
2838;SDS011;1427;48.510;9.060;2023-08-17T12:06:19;49.92;;;7.28;;
2838;SDS011;1427;48.510;9.060;2023-08-17T12:08:50;48.77;;;5.63;;
2838;SDS011;1427;48.510;9.060;2023-08-17T12:11:18;48.92;;;5.43;;
2838;SDS011;1427;48.510;9.060;2023-08-17T12:13:48;48.33;;;5.10;;
2838;SDS011;1427;48.510;9.060;2023-08-17T12:16:17;48.83;;;5.37;;
2838;SDS011;1427;48.510;9.060;2023-08-17T12:18:47;48.70;;;5.60;;
2838;SDS011;1427;48.510;9.060;2023-08-17T12:21:15;51.20;;;7.25;;
2838;SDS011;1427;48.510;9.060;2023-08-17T12:23:44;49.22;;;5.95;;
2838;SDS011;1427;48.510;9.060;2023-08-17T12:26:19;47.88;;;4.47;;
2838;SDS011;1427;48.510;9.060;2023-08-17T12:28:47;47.90;;;4.95;;
2838;SDS011;1427;48.510;9.060;2023-08-17T12:31:20;49.45;;;6.10;;
2838;SDS011;1427;48.510;9.060;2023-08-17T12:33:49;49.65;;;6.85;;
2838;SDS011;1427;48.510;9.060;2023-08-17T12:36:17;48.97;;;5.43;;
2838;SDS011;1427;48.510;9.060;2023-08-17T12:38:47;48.03;;;4.72;;
2838;SDS011;1427;48.510;9.060;2023-08-17T12:41:15;49.92;;;6.18;;
2838;SDS011;1427;48.510;9.060;2023-08-17T12:43:45;49.25;;;6.05;;
2838;SDS011;1427;48.510;9.060;2023-08-17T12:46:13;49.10;;;5.50;;
2838;SDS011;1427;48.510;9.060;2023-08-17T12:48:42;47.97;;;5.18;;
2838;SDS011;1427;48.510;9.060;2023-08-17T12:51:10;48.60;;;6.03;;
2838;SDS011;1427;48.510;9.060;2023-08-17T12:53:38;51.60;;;5.23;;
2838;SDS011;1427;48.510;9.060;2023-08-17T12:56:06;50.47;;;7.77;;
2838;SDS011;1427;48.510;9.060;2023-08-17T12:58:34;49.30;;;5.70;;
2838;SDS011;1427;48.510;9.060;2023-08-17T13:01:03;49.63;;;6.77;;
2838;SDS011;1427;48.510;9.060;2023-08-17T13:03:31;48.40;;;5.65;;
2838;SDS011;1427;48.510;9.060;2023-08-17T13:06:00;47.97;;;5.13;;
2838;SDS011;1427;48.510;9.060;2023-08-17T13:08:29;49.33;;;5.83;;
2838;SDS011;1427;48.510;9.060;2023-08-17T13:10:57;49.17;;;6.20;;
2838;SDS011;1427;48.510;9.060;2023-08-17T13:13:25;47.97;;;4.70;;
2838;SDS011;1427;48.510;9.060;2023-08-17T13:15:53;49.40;;;6.20;;
2838;SDS011;1427;48.510;9.060;2023-08-17T13:18:22;49.17;;;5.80;;
2838;SDS011;1427;48.510;9.060;2023-08-17T13:20:50;49.03;;;6.07;;
2838;SDS011;1427;48.510;9.060;2023-08-17T13:23:18;50.23;;;7.23;;
2838;SDS011;1427;48.510;9.060;2023-08-17T13:25:46;48.37;;;5.03;;
2838;SDS011;1427;48.510;9.060;2023-08-17T13:28:15;49.67;;;5.63;;
2838;SDS011;1427;48.510;9.060;2023-08-17T13:30:43;50.17;;;6.77;;
2838;SDS011;1427;48.510;9.060;2023-08-17T13:33:11;49.97;;;6.90;;
2838;SDS011;1427;48.510;9.060;2023-08-17T13:35:40;47.80;;;4.57;;
2838;SDS011;1427;48.510;9.060;2023-08-17T13:38:08;49.63;;;6.20;;
2838;SDS011;1427;48.510;9.060;2023-08-17T13:40:37;49.30;;;6.00;;
2838;SDS011;1427;48.510;9.060;2023-08-17T13:43:07;49.03;;;5.87;;
2838;SDS011;1427;48.510;9.060;2023-08-17T13:45:38;48.80;;;5.37;;
2838;SDS011;1427;48.510;9.060;2023-08-17T13:48:07;49.97;;;6.23;;
2838;SDS011;1427;48.510;9.060;2023-08-17T13:50:37;51.00;;;8.00;;
2838;SDS011;1427;48.510;9.060;2023-08-17T13:53:07;51.03;;;6.93;;
2838;SDS011;1427;48.510;9.060;2023-08-17T13:55:35;50.30;;;6.40;;
2838;SDS011;1427;48.510;9.060;2023-08-17T13:58:03;50.17;;;6.47;;
2838;SDS011;1427;48.510;9.060;2023-08-17T14:00:31;49.17;;;5.80;;
2838;SDS011;1427;48.510;9.060;2023-08-17T14:02:59;48.80;;;5.20;;
2838;SDS011;1427;48.510;9.060;2023-08-17T14:05:28;49.57;;;5.63;;
2838;SDS011;1427;48.510;9.060;2023-08-17T14:07:56;48.53;;;5.07;;
2838;SDS011;1427;48.510;9.060;2023-08-17T14:10:26;49.37;;;5.87;;
2838;SDS011;1427;48.510;9.060;2023-08-17T14:13:05;49.37;;;6.70;;
2838;SDS011;1427;48.510;9.060;2023-08-17T14:15:33;48.67;;;5.30;;
2838;SDS011;1427;48.510;9.060;2023-08-17T14:18:01;50.07;;;6.73;;
2838;SDS011;1427;48.510;9.060;2023-08-17T14:20:30;48.70;;;5.70;;
2838;SDS011;1427;48.510;9.060;2023-08-17T14:22:58;49.53;;;6.20;;
2838;SDS011;1427;48.510;9.060;2023-08-17T14:25:27;59.03;;;5.30;;
2838;SDS011;1427;48.510;9.060;2023-08-17T14:27:57;50.58;;;7.05;;
2838;SDS011;1427;48.510;9.060;2023-08-17T14:30:25;49.60;;;6.27;;
2838;SDS011;1427;48.510;9.060;2023-08-17T14:32:53;48.05;;;4.10;;
2838;SDS011;1427;48.510;9.060;2023-08-17T14:35:26;49.28;;;5.70;;
2838;SDS011;1427;48.510;9.060;2023-08-17T14:37:55;49.38;;;6.50;;
2838;SDS011;1427;48.510;9.060;2023-08-17T14:40:24;49.20;;;6.18;;
2838;SDS011;1427;48.510;9.060;2023-08-17T14:42:54;49.70;;;5.70;;
2838;SDS011;1427;48.510;9.060;2023-08-17T14:45:23;49.08;;;6.18;;
2838;SDS011;1427;48.510;9.060;2023-08-17T14:47:51;48.03;;;4.53;;
2838;SDS011;1427;48.510;9.060;2023-08-17T14:50:19;48.83;;;5.43;;
2838;SDS011;1427;48.510;9.060;2023-08-17T14:52:54;48.08;;;5.53;;
2838;SDS011;1427;48.510;9.060;2023-08-17T14:55:22;48.05;;;5.50;;
2838;SDS011;1427;48.510;9.060;2023-08-17T14:57:50;48.25;;;5.90;;
2838;SDS011;1427;48.510;9.060;2023-08-17T15:00:20;49.22;;;5.63;;
2838;SDS011;1427;48.510;9.060;2023-08-17T15:02:48;49.22;;;6.32;;
2838;SDS011;1427;48.510;9.060;2023-08-17T15:05:16;48.08;;;5.40;;
2838;SDS011;1427;48.510;9.060;2023-08-17T15:07:45;49.70;;;7.10;;
2838;SDS011;1427;48.510;9.060;2023-08-17T15:10:13;48.95;;;6.07;;
2838;SDS011;1427;48.510;9.060;2023-08-17T15:12:41;49.45;;;5.70;;
2838;SDS011;1427;48.510;9.060;2023-08-17T15:15:09;48.58;;;5.10;;